Terminal Aerodrome Forecast
Issued by NWS Jackson, MS

Home | Current Version | Previous Version | Text Only | Print | Product List | Glossary On
Versions: 1 2 3 4 5 6 7 8 9 10 11 12 13 14 15 16
000
FTUS44 KJAN 050523
TAFHBG
TAF
KHBG 050523Z 0506/0606 00000KT 6SM BR SCT110
     FM050800 00000KT 4SM BR SCT002
     FM051000 00000KT 2SM BR BKN002
     FM051200 00000KT 4SM BR SCT002
     FM051400 06003KT P6SM SCT050=

USA.gov is the U.S. government's official web portal to all federal, state and local government web resources and services.